Airfield :
LOGIN :

Register | Disclaimer

   EN    FR    IT 

 










Legend :    VFR   Marginal VFR   IFR   Intensive IFR   Very Intensive IFR
Visi :
Ceiling :
>= 8 km
>= 3000ft
5 to 8 km
1000 to 3000 ft
1500m to 5 km
500 to 1000 ft
800 to 1500m
200 to 500 ft
< 800m
< 200 ft
Symbols :   Thunderstorms  Fog  Heavy snow  Heavy precipitations  Wind > 20 kt
SIGMETs :     Misc.  Thunderstorms  Icing  Turbulence  Mountain Waves  Volcanic Ashes







- Airport Elevation : 527 ft
- IATA code : DBV


LDDU - Dubrovnik

CURRENT METAR :
  • 210930Z 17009KT 140V220 CAVOK 29/14 Q1014 BECMG 16010KT

EXPIRED METARs :
  • 210900Z 17008KT CAVOK 30/13 Q1014 BECMG 16010KT
  • 210830Z 17006KT 120V220 CAVOK 30/14 Q1014 BECMG 16010KT
  • 210800Z 16006KT 120V200 CAVOK 29/14 Q1014 BECMG 16010KT
  • 210730Z VRB06KT CAVOK 29/14 Q1014 BECMG 16010KT
  • 210700Z 10007KT 070V140 CAVOK 29/14 Q1014 NOSIG

TAF TAF LDDU
Valid from the 21 at 06:00 until the 22 at 06:00 UTC


210525Z 2106/2206 09006KT CAVOK TX30/2113Z TN21/2203Z
BECMG 2107/2109 16010KT
BECMG 2111/2113 22007KT
BECMG 2118/2120 08008KT
No reported NOTAMs for that airfield.



MET'MAP, your aeronautical weather chart ! - Copyright ORBIFLY December 2007 - Disclaimer

ORBIFLY MET'MAP TEAM :

Programming & Development : Alexandra Zaïnal
Concept & Development : Baudouin d'Aumeries
Co-Development & Prog : Marc-Olivier Méhu
Technical & hardware support : Manuel Goepfert

Contact : metmap@orbifly.com




SOURCES & CREDITS :

   NOAA